Time;durP1;ratioP1;P1;durP2;ratioP2;P2;SDS_P1;SDS_P2;PMS_P1;PMS_P2;Temp;Humidity;BMP_temperature;BMP_pressure;BME280_temperature;BME280_humidity;BME280_pressure;Samples;Min_cycle;Max_cycle;Signal;HPM_P1;HPM_P2
2023/01/26 00:01:22;;;;;;;9.43;3.28;;;-0.30;91.30;;;;;;6132377;23;20130;-79
2023/01/26 00:03:51;;;;;;;9.80;3.90;;;-0.30;91.30;;;;;;6183121;23;20028;-80
2023/01/26 00:06:27;;;;;;;9.48;3.40;;;-0.30;91.60;;;;;;6133401;23;20025;-80
2023/01/26 00:08:56;;;;;;;8.90;3.20;;;-0.30;91.30;;;;;;6152490;23;20064;-80
2023/01/26 00:11:28;;;;;;;8.10;2.97;;;-0.30;91.30;;;;;;6132835;23;20425;-80
2023/01/26 00:13:58;;;;;;;7.35;2.78;;;-0.30;91.30;;;;;;6131784;23;20068;-79
2023/01/26 00:16:28;;;;;;;8.13;2.85;;;-0.30;91.30;;;;;;6106822;23;20021;-79
2023/01/26 00:18:57;;;;;;;9.02;3.17;;;-0.30;91.30;;;;;;6158475;23;20091;-80
2023/01/26 00:21:27;;;;;;;9.07;3.08;;;-0.30;91.30;;;;;;6157515;23;20001;-80
2023/01/26 00:23:54;;;;;;;6.50;2.55;;;-0.20;91.30;;;;;;6132220;23;20016;-80
2023/01/26 00:26:23;;;;;;;6.30;2.80;;;-0.30;91.30;;;;;;6132381;23;20026;-79
2023/01/26 00:28:49;;;;;;;7.07;2.85;;;-0.30;91.30;;;;;;6132516;23;20422;-79
2023/01/26 00:31:18;;;;;;;6.78;2.97;;;-0.20;91.40;;;;;;6130916;23;20010;-79
2023/01/26 00:33:44;;;;;;;6.07;2.40;;;-0.10;91.40;;;;;;6155081;23;20005;-79
2023/01/26 00:36:11;;;;;;;6.93;2.88;;;-0.20;91.40;;;;;;6183187;23;20017;-79
2023/01/26 00:38:38;;;;;;;9.35;3.28;;;-0.20;91.40;;;;;;6183057;23;20033;-81
2023/01/26 00:41:04;;;;;;;8.23;3.47;;;-0.30;91.30;;;;;;6155537;23;19998;-80
2023/01/26 00:43:29;;;;;;;8.48;3.67;;;-0.20;91.40;;;;;;6132400;23;20041;-80
2023/01/26 00:45:55;;;;;;;8.27;3.13;;;-0.20;91.40;;;;;;6132425;23;20021;-80
2023/01/26 00:48:21;;;;;;;10.77;4.00;;;-0.20;91.40;;;;;;6183536;23;20027;-81
2023/01/26 00:50:48;;;;;;;8.57;3.58;;;-0.20;91.40;;;;;;6183795;23;20353;-80
2023/01/26 00:53:15;;;;;;;9.80;3.60;;;-0.20;91.40;;;;;;6132368;23;19997;-80
2023/01/26 00:55:41;;;;;;;7.20;3.05;;;-0.20;91.40;;;;;;6132261;23;20009;-80
2023/01/26 00:58:08;;;;;;;8.32;3.58;;;-0.20;91.40;;;;;;6132444;23;19998;-80
2023/01/26 01:00:35;;;;;;;7.35;2.85;;;-0.20;91.40;;;;;;6133253;23;19997;-80
2023/01/26 01:03:01;;;;;;;7.82;3.33;;;-0.20;91.40;;;;;;6180769;23;20001;-80
2023/01/26 01:05:28;;;;;;;9.43;3.45;;;-0.20;91.40;;;;;;6182991;23;20074;-80
2023/01/26 01:07:55;;;;;;;7.47;2.83;;;-0.20;91.40;;;;;;6132526;23;20337;-80
2023/01/26 01:10:21;;;;;;;6.10;2.33;;;-0.10;91.50;;;;;;6183603;23;20069;-80
2023/01/26 01:12:47;;;;;;;7.50;2.60;;;-0.20;91.50;;;;;;6156959;23;20009;-80
2023/01/26 01:15:12;;;;;;;6.00;2.53;;;-0.20;91.50;;;;;;6181273;23;20013;-80
2023/01/26 01:17:38;;;;;;;6.57;2.60;;;-0.20;91.40;;;;;;6183663;23;19997;-80
2023/01/26 01:20:06;;;;;;;7.75;2.92;;;-0.20;91.40;;;;;;6129931;23;20430;-80
2023/01/26 01:22:33;;;;;;;5.15;2.22;;;-0.20;91.50;;;;;;6129737;23;20009;-80
2023/01/26 01:24:58;;;;;;;6.55;2.35;;;-0.10;91.50;;;;;;6182928;23;20005;-80
2023/01/26 01:27:24;;;;;;;6.68;2.88;;;-0.10;91.50;;;;;;6182099;23;20012;-79
2023/01/26 01:29:51;;;;;;;6.68;2.22;;;-0.10;91.50;;;;;;6187116;23;20021;-80
2023/01/26 01:32:18;;;;;;;6.35;2.50;;;-0.10;91.50;;;;;;6132199;23;20035;-80
2023/01/26 01:34:46;;;;;;;7.32;2.35;;;-0.10;91.50;;;;;;6182920;23;20008;-79
2023/01/26 01:37:11;;;;;;;7.82;3.03;;;-0.10;91.50;;;;;;6131935;23;20110;-80
2023/01/26 01:39:37;;;;;;;6.70;2.65;;;-0.10;91.50;;;;;;6182971;23;20005;-80
2023/01/26 01:42:03;;;;;;;4.72;2.10;;;-0.10;91.50;;;;;;6132627;23;20002;-80
2023/01/26 01:44:28;;;;;;;7.70;2.40;;;0.00;91.50;;;;;;6182626;23;20315;-80
2023/01/26 01:46:59;;;;;;;5.35;2.20;;;0.00;91.50;;;;;;6181510;23;20002;-79
2023/01/26 01:49:31;;;;;;;4.82;1.95;;;-0.10;91.50;;;;;;6127393;23;20060;-80
2023/01/26 01:52:16;;;;;;;6.20;2.15;;;-0.10;91.50;;;;;;6125741;23;20005;-80
2023/01/26 01:54:48;;;;;;;9.75;3.15;;;-0.10;91.50;;;;;;6126595;23;20089;-80
2023/01/26 01:57:17;;;;;;;;;;;-0.10;91.50;;;;;;6156904;23;20365;-80
2023/01/26 01:59:50;;;;;;;7.50;2.70;;;-0.10;91.50;;;;;;6130998;23;19936;-80
2023/01/26 02:02:16;;;;;;;7.63;2.70;;;-0.10;91.50;;;;;;6156412;23;20025;-80
2023/01/26 02:04:43;;;;;;;8.27;2.58;;;-0.10;91.50;;;;;;6156566;23;20060;-80
2023/01/26 02:07:10;;;;;;;6.20;2.42;;;-0.20;91.50;;;;;;6156701;23;20109;-80
2023/01/26 02:12:26;;;;;;;6.20;2.40;;;-0.10;91.60;;;;;;6181272;23;20009;-81
2023/01/26 02:14:52;;;;;;;7.53;2.47;;;-0.20;91.50;;;;;;6105228;23;20013;-80
2023/01/26 02:17:18;;;;;;;7.78;3.00;;;-0.10;91.50;;;;;;6182912;23;20016;-80
2023/01/26 02:20:16;;;;;;;5.43;2.30;;;-0.10;91.60;;;;;;6182717;23;19997;-80
2023/01/26 02:23:09;;;;;;;6.30;2.70;;;-0.10;91.60;;;;;;6179763;23;20008;-80
2023/01/26 02:25:48;;;;;;;6.20;2.30;;;-0.10;91.60;;;;;;6182490;23;20055;-80
2023/01/26 02:28:15;;;;;;;5.13;2.13;;;0.00;91.60;;;;;;6154395;23;20032;-80
2023/01/26 02:30:41;;;;;;;5.15;1.88;;;-0.10;91.50;;;;;;6156776;23;20493;-80
2023/01/26 02:33:07;;;;;;;6.50;2.17;;;0.00;91.60;;;;;;6155895;23;20043;-80
2023/01/26 02:35:33;;;;;;;3.70;1.55;;;-0.10;91.50;;;;;;6131073;23;20319;-80
2023/01/26 02:37:59;;;;;;;4.97;2.10;;;0.00;91.60;;;;;;6180939;23;20135;-81
2023/01/26 02:40:35;;;;;;;4.85;1.88;;;0.00;91.60;;;;;;6131926;23;20005;-80
2023/01/26 02:43:01;;;;;;;6.68;1.90;;;0.00;91.60;;;;;;6129846;23;20008;-81
2023/01/26 02:45:28;;;;;;;3.58;1.58;;;0.00;91.60;;;;;;6131654;23;20032;-80
2023/01/26 02:47:53;;;;;;;5.57;2.20;;;-0.10;91.60;;;;;;6132215;23;20314;-80
2023/01/26 02:50:19;;;;;;;5.10;1.90;;;0.00;91.60;;;;;;6155900;23;20016;-80
2023/01/26 02:52:45;;;;;;;6.38;2.47;;;0.00;91.60;;;;;;6154509;23;20001;-80
2023/01/26 02:57:46;;;;;;;4.97;1.65;;;0.00;91.60;;;;;;6179126;23;20041;-80
2023/01/26 03:00:15;;;;;;;6.05;2.15;;;0.00;91.60;;;;;;6155897;23;20437;-80
2023/01/26 03:02:42;;;;;;;6.38;2.42;;;0.00;91.70;;;;;;6154581;23;20001;-80
2023/01/26 03:05:08;;;;;;;5.22;2.20;;;0.00;91.70;;;;;;6157784;23;20001;-80
2023/01/26 03:07:34;;;;;;;4.78;1.80;;;0.00;91.70;;;;;;6132720;23;20317;-80
2023/01/26 03:09:59;;;;;;;7.22;1.80;;;0.00;91.70;;;;;;6182022;23;20009;-80
2023/01/26 03:12:25;;;;;;;5.93;1.90;;;0.00;91.70;;;;;;6131736;23;20013;-80
2023/01/26 03:17:27;;;;;;;4.43;1.88;;;0.00;91.60;;;;;;6155200;23;20027;-81
2023/01/26 03:27:58;;;;;;;5.85;2.05;;;0.10;91.70;;;;;;6157740;23;20381;-79
2023/01/26 03:30:23;;;;;;;5.05;1.95;;;0.10;91.70;;;;;;6131762;23;20006;-79
2023/01/26 03:32:49;;;;;;;2.97;1.63;;;0.10;91.70;;;;;;6133333;23;20005;-79
2023/01/26 03:35:21;;;;;;;5.03;1.92;;;0.10;91.70;;;;;;6130560;23;20010;-80
2023/01/26 03:37:53;;;;;;;4.47;1.85;;;0.10;91.70;;;;;;6131416;23;20307;-80
2023/01/26 03:56:34;;;;;;;4.60;1.40;;;0.20;91.70;;;;;;6157338;23;20052;-80
2023/01/26 03:59:07;;;;;;;3.35;1.58;;;0.10;92.00;;;;;;6132277;23;20085;-79
2023/01/26 04:01:35;;;;;;;4.65;1.60;;;0.10;91.70;;;;;;6133245;23;20428;-80
2023/01/26 04:09:21;;;;;;;3.97;1.50;;;0.20;91.70;;;;;;6156415;23;20013;-80
2023/01/26 04:11:47;;;;;;;4.07;1.45;;;0.20;91.70;;;;;;6132448;23;20013;-80
2023/01/26 04:22:13;;;;;;;4.75;1.67;;;0.20;91.80;;;;;;6160561;23;20005;-80
2023/01/26 04:24:39;;;;;;;3.65;1.33;;;0.20;91.80;;;;;;6132880;23;20007;-80
2023/01/26 04:27:05;;;;;;;4.28;1.55;;;0.30;91.80;;;;;;6132580;23;20051;-80
2023/01/26 04:29:30;;;;;;;2.67;1.27;;;0.20;91.70;;;;;;6177080;23;20021;-80
2023/01/26 04:31:56;;;;;;;2.92;1.38;;;0.20;91.80;;;;;;6132247;23;20116;-80
2023/01/26 04:34:21;;;;;;;3.30;1.27;;;0.40;91.80;;;;;;6132402;23;20056;-80
2023/01/26 04:36:47;;;;;;;4.22;1.73;;;0.30;91.80;;;;;;6132148;23;20427;-80
2023/01/26 04:39:13;;;;;;;3.70;1.40;;;0.30;91.80;;;;;;6132186;23;20467;-81
2023/01/26 04:41:39;;;;;;;3.78;1.40;;;0.40;91.80;;;;;;6157154;23;20035;-80
2023/01/26 04:44:05;;;;;;;3.10;1.10;;;0.30;91.80;;;;;;6129300;23;20021;-80
2023/01/26 04:46:32;;;;;;;3.33;1.20;;;0.30;91.80;;;;;;6156922;23;20445;-80
2023/01/26 04:48:57;;;;;;;3.63;1.25;;;0.40;91.80;;;;;;6183760;23;20005;-80
2023/01/26 04:51:23;;;;;;;4.07;1.10;;;0.30;91.80;;;;;;6156978;23;20011;-80
2023/01/26 04:53:49;;;;;;;2.58;1.17;;;0.30;91.80;;;;;;6157241;23;20417;-80
2023/01/26 04:56:26;;;;;;;3.65;1.40;;;0.40;91.90;;;;;;6183282;23;20445;-80
2023/01/26 04:58:52;;;;;;;2.58;1.00;;;0.30;91.80;;;;;;6156955;23;20485;-80
2023/01/26 05:01:18;;;;;;;3.28;1.55;;;0.40;91.80;;;;;;6157600;23;20029;-80
2023/01/26 05:03:44;;;;;;;2.92;1.40;;;0.40;91.80;;;;;;6157417;23;20004;-80
2023/01/26 05:06:10;;;;;;;2.63;1.27;;;0.40;91.80;;;;;;6130620;23;20006;-80
2023/01/26 05:08:37;;;;;;;2.92;1.30;;;0.40;91.80;;;;;;6183620;23;20817;-80
2023/01/26 05:11:02;;;;;;;3.72;1.75;;;0.40;91.80;;;;;;6157670;23;20016;-80
2023/01/26 05:13:28;;;;;;;3.28;1.15;;;0.40;91.80;;;;;;6157490;23;20012;-80
2023/01/26 05:15:54;;;;;;;3.85;1.38;;;0.40;91.90;;;;;;6129866;23;20014;-80
2023/01/26 05:18:19;;;;;;;3.00;1.15;;;0.40;91.90;;;;;;6157228;23;20001;-80
2023/01/26 05:20:46;;;;;;;2.47;1.20;;;0.40;91.90;;;;;;6132495;23;20001;-80
2023/01/26 05:23:11;;;;;;;2.33;1.00;;;0.40;91.90;;;;;;6130309;23;20013;-80
2023/01/26 05:25:37;;;;;;;2.53;1.17;;;0.40;91.90;;;;;;6132320;23;20079;-81
2023/01/26 05:28:03;;;;;;;3.20;1.23;;;0.40;91.90;;;;;;6183878;23;20001;-80
2023/01/26 05:30:31;;;;;;;2.92;1.38;;;0.40;91.90;;;;;;6157260;23;20016;-79
2023/01/26 05:33:01;;;;;;;3.50;1.48;;;0.40;91.90;;;;;;6132418;23;20043;-80
2023/01/26 05:35:27;;;;;;;3.70;1.52;;;0.50;91.90;;;;;;6157756;23;20437;-80
2023/01/26 05:37:53;;;;;;;3.95;1.35;;;0.50;91.90;;;;;;6157721;23;20009;-80
2023/01/26 05:40:20;;;;;;;2.97;1.38;;;0.50;91.90;;;;;;6132126;23;20042;-80
2023/01/26 05:42:53;;;;;;;3.08;1.25;;;0.50;91.90;;;;;;6122500;23;20010;-80
2023/01/26 05:45:19;;;;;;;2.40;1.38;;;0.50;91.90;;;;;;6040477;23;20066;-80
2023/01/26 05:47:46;;;;;;;2.45;1.25;;;0.40;91.90;;;;;;6111832;23;20002;-80
2023/01/26 05:50:13;;;;;;;3.72;1.33;;;0.40;91.90;;;;;;6099107;23;20126;-80
2023/01/26 05:52:39;;;;;;;3.55;1.38;;;0.40;91.90;;;;;;6098179;23;20007;-80
2023/01/26 05:55:06;;;;;;;3.53;1.33;;;0.40;91.90;;;;;;6097733;23;20080;-80
2023/01/26 05:57:32;;;;;;;1.90;1.00;;;0.50;92.00;;;;;;6097311;23;20014;-80
2023/01/26 05:59:57;;;;;;;3.25;1.50;;;0.50;91.90;;;;;;6097198;23;20089;-80
2023/01/26 06:02:26;;;;;;;3.83;1.25;;;0.50;91.90;;;;;;6048955;23;20140;-81
2023/01/26 06:04:52;;;;;;;2.70;1.17;;;0.60;91.90;;;;;;6072516;23;20034;-80
2023/01/26 06:07:17;;;;;;;3.40;1.50;;;0.60;91.90;;;;;;6073105;23;20010;-80
2023/01/26 06:09:44;;;;;;;2.38;0.95;;;0.60;91.90;;;;;;6094534;23;20347;-80
2023/01/26 06:12:17;;;;;;;2.42;1.10;;;0.60;91.90;;;;;;6124722;23;20006;-80
2023/01/26 06:14:43;;;;;;;3.63;1.58;;;0.60;91.90;;;;;;6130383;23;20028;-81
2023/01/26 06:17:09;;;;;;;2.63;1.25;;;0.50;91.90;;;;;;6137350;23;20438;-78
2023/01/26 06:19:36;;;;;;;3.42;1.13;;;0.60;91.90;;;;;;6165706;23;20404;-79
2023/01/26 06:22:02;;;;;;;2.95;1.63;;;0.50;91.90;;;;;;6157617;23;20421;-80
2023/01/26 06:24:28;;;;;;;2.85;1.20;;;0.60;91.90;;;;;;6132006;23;20059;-81
2023/01/26 06:26:54;;;;;;;4.45;1.70;;;0.50;91.90;;;;;;6130980;23;20033;-80
2023/01/26 06:29:19;;;;;;;3.97;1.48;;;0.60;91.90;;;;;;6132235;23;20504;-80
2023/01/26 06:31:45;;;;;;;3.58;1.58;;;0.60;91.90;;;;;;6183115;23;20016;-80
2023/01/26 06:34:11;;;;;;;2.92;1.00;;;0.60;91.90;;;;;;6157396;23;20013;-80
2023/01/26 06:36:36;;;;;;;3.55;1.50;;;0.60;91.90;;;;;;6156751;23;20009;-80
2023/01/26 06:39:02;;;;;;;2.85;1.00;;;0.60;91.90;;;;;;6158348;23;20001;-80
2023/01/26 06:41:28;;;;;;;3.13;1.50;;;0.60;91.90;;;;;;6157458;23;20321;-81
2023/01/26 06:43:54;;;;;;;3.10;1.50;;;0.70;92.00;;;;;;6133667;23;20004;-81
2023/01/26 06:46:19;;;;;;;3.22;1.40;;;0.50;91.90;;;;;;6156263;23;20002;-81
2023/01/26 06:48:45;;;;;;;4.47;1.75;;;0.60;91.90;;;;;;6134124;23;20444;-81
2023/01/26 06:51:50;;;;;;;2.70;1.00;;;0.60;92.00;;;;;;6135353;23;20028;-81
2023/01/26 06:54:16;;;;;;;3.55;1.27;;;0.80;92.00;;;;;;6138529;23;20017;-81
2023/01/26 06:56:41;;;;;;;3.30;1.35;;;0.70;92.00;;;;;;6159337;23;20053;-80
2023/01/26 06:59:09;;;;;;;2.90;1.35;;;0.70;92.00;;;;;;6159833;23;20459;-80
2023/01/26 07:01:38;;;;;;;3.63;1.70;;;0.70;92.00;;;;;;6186851;23;20435;-82
2023/01/26 07:04:04;;;;;;;3.83;1.40;;;0.70;92.00;;;;;;6186730;23;20438;-81
2023/01/26 07:06:29;;;;;;;4.18;1.75;;;0.70;92.00;;;;;;6158463;23;20013;-80
2023/01/26 07:08:55;;;;;;;3.08;1.23;;;0.70;92.00;;;;;;6158345;23;20051;-80
2023/01/26 07:11:21;;;;;;;3.60;1.65;;;0.70;92.00;;;;;;6131273;23;20060;-80
2023/01/26 07:13:47;;;;;;;3.63;1.42;;;0.70;92.00;;;;;;6184107;23;20017;-80
2023/01/26 07:16:15;;;;;;;4.38;1.63;;;0.90;92.00;;;;;;6131274;23;20016;-80
2023/01/26 07:18:41;;;;;;;4.25;1.63;;;0.70;92.00;;;;;;6183939;23;20005;-80
2023/01/26 07:21:11;;;;;;;4.07;1.38;;;0.70;92.00;;;;;;6133449;23;19997;-80
2023/01/26 07:23:37;;;;;;;3.20;1.33;;;0.80;92.00;;;;;;6156596;23;20425;-79
2023/01/26 07:26:03;;;;;;;3.65;1.42;;;0.70;92.00;;;;;;6131448;23;20060;-79
2023/01/26 07:28:30;;;;;;;3.75;1.40;;;0.70;92.00;;;;;;6133265;23;20005;-80
2023/01/26 07:30:57;;;;;;;2.85;1.10;;;0.80;92.00;;;;;;6133064;23;20010;-79
2023/01/26 07:33:23;;;;;;;3.05;1.33;;;0.80;92.00;;;;;;6184401;23;20334;-79
2023/01/26 07:35:52;;;;;;;3.20;1.50;;;0.80;92.00;;;;;;6133223;23;20009;-79
2023/01/26 07:38:18;;;;;;;4.82;1.73;;;0.80;92.00;;;;;;6134615;23;20001;-79
2023/01/26 07:40:44;;;;;;;6.18;1.88;;;0.90;92.00;;;;;;6155866;23;20029;-79
2023/01/26 07:43:09;;;;;;;3.88;1.45;;;0.90;92.00;;;;;;6184639;23;20025;-79
2023/01/26 07:45:35;;;;;;;3.85;1.63;;;0.80;92.00;;;;;;6157572;23;20492;-80
2023/01/26 07:48:01;;;;;;;4.43;1.58;;;0.80;91.90;;;;;;6157492;23;20084;-79
2023/01/26 07:50:27;;;;;;;4.78;1.80;;;0.80;91.90;;;;;;6157260;23;20033;-79
2023/01/26 07:52:52;;;;;;;4.45;1.90;;;0.80;91.90;;;;;;6157886;23;20009;-79
2023/01/26 07:55:19;;;;;;;2.67;1.10;;;0.90;92.00;;;;;;6183969;23;20036;-79
2023/01/26 07:57:47;;;;;;;2.60;1.30;;;0.80;92.00;;;;;;6132967;23;20004;-79
2023/01/26 08:00:14;;;;;;;4.32;1.60;;;0.90;92.00;;;;;;6133333;23;19997;-79
2023/01/26 08:02:40;;;;;;;3.75;1.45;;;0.90;92.00;;;;;;6154924;23;20053;-79
2023/01/26 08:05:06;;;;;;;4.68;1.60;;;0.90;92.00;;;;;;6184481;23;20353;-79
2023/01/26 08:07:32;;;;;;;4.88;1.83;;;0.90;92.00;;;;;;6156197;23;20391;-79
2023/01/26 08:09:58;;;;;;;5.70;2.10;;;0.90;92.00;;;;;;6157480;23;20004;-79
2023/01/26 08:12:24;;;;;;;3.47;1.42;;;0.90;92.00;;;;;;6157715;23;19997;-79
2023/01/26 08:14:50;;;;;;;3.65;1.55;;;1.00;92.00;;;;;;6134116;23;20005;-79
2023/01/26 08:17:16;;;;;;;3.80;1.30;;;1.00;92.00;;;;;;6133030;23;20016;-79
2023/01/26 08:19:43;;;;;;;2.78;1.10;;;1.00;92.00;;;;;;6186208;23;20004;-82
2023/01/26 08:22:08;;;;;;;3.83;1.42;;;0.90;92.00;;;;;;6104246;23;20034;-80
2023/01/26 08:24:34;;;;;;;3.13;1.42;;;1.00;92.00;;;;;;6129979;23;20017;-80
2023/01/26 08:27:00;;;;;;;3.97;1.50;;;1.10;92.00;;;;;;6070797;23;20018;-80
2023/01/26 08:29:25;;;;;;;3.58;1.48;;;1.00;92.10;;;;;;6076341;23;20435;-80
2023/01/26 08:31:52;;;;;;;2.95;1.35;;;1.20;92.00;;;;;;6075844;23;20021;-80
2023/01/26 08:34:18;;;;;;;3.70;1.20;;;1.10;91.90;;;;;;6077688;23;20014;-80
2023/01/26 08:36:43;;;;;;;2.95;1.27;;;1.10;92.00;;;;;;6075885;23;20474;-80
2023/01/26 08:39:09;;;;;;;4.40;1.70;;;1.10;92.00;;;;;;6075925;23;20002;-80
2023/01/26 08:41:35;;;;;;;3.60;1.50;;;1.10;92.00;;;;;;6100347;23;20006;-80
2023/01/26 08:44:01;;;;;;;2.30;0.90;;;1.20;92.00;;;;;;6106978;23;20032;-80
2023/01/26 08:46:27;;;;;;;2.40;1.00;;;1.20;92.00;;;;;;6109006;23;20006;-81
2023/01/26 08:48:52;;;;;;;1.67;0.90;;;1.20;92.00;;;;;;6109443;23;20037;-80
2023/01/26 08:51:18;;;;;;;3.05;1.13;;;1.20;91.90;;;;;;6134579;23;20012;-81
2023/01/26 08:53:44;;;;;;;4.15;1.38;;;1.30;92.00;;;;;;6154896;23;20076;-81
2023/01/26 08:56:12;;;;;;;2.03;0.90;;;1.40;91.90;;;;;;6193916;23;20030;-81
2023/01/26 08:58:38;;;;;;;1.88;1.00;;;1.30;91.90;;;;;;6142951;23;20009;-81
2023/01/26 09:01:08;;;;;;;1.55;0.85;;;1.40;91.90;;;;;;6168782;23;20037;-81
2023/01/26 09:03:35;;;;;;;3.05;1.35;;;1.40;91.90;;;;;;6191992;23;19997;-81
2023/01/26 09:06:03;;;;;;;3.65;1.30;;;1.40;91.90;;;;;;6191236;23;20338;-81
2023/01/26 09:08:29;;;;;;;2.08;0.93;;;1.40;91.90;;;;;;6168444;23;20005;-81
2023/01/26 09:10:55;;;;;;;2.05;1.00;;;1.40;91.90;;;;;;6170321;23;20028;-81
2023/01/26 09:13:21;;;;;;;3.45;1.20;;;1.50;91.90;;;;;;6172438;23;20000;-81
2023/01/26 09:15:47;;;;;;;2.65;1.25;;;1.50;91.90;;;;;;6147482;23;20033;-82
2023/01/26 09:18:12;;;;;;;3.20;1.23;;;1.50;91.90;;;;;;6176289;23;20004;-81
2023/01/26 09:20:38;;;;;;;4.78;1.73;;;1.60;91.90;;;;;;6197371;23;20496;-82
2023/01/26 09:23:04;;;;;;;3.90;1.20;;;1.60;91.80;;;;;;6171838;23;20029;-82
2023/01/26 09:25:30;;;;;;;4.22;1.48;;;1.70;91.80;;;;;;6161978;23;20001;-82
2023/01/26 09:27:56;;;;;;;2.55;0.95;;;1.60;91.80;;;;;;6134760;23;20020;-82
2023/01/26 09:30:23;;;;;;;3.70;1.70;;;1.70;91.80;;;;;;6131947;23;20005;-82
2023/01/26 09:32:49;;;;;;;3.70;1.65;;;1.60;91.80;;;;;;6155007;23;20009;-82
2023/01/26 09:35:15;;;;;;;5.60;2.08;;;1.70;92.10;;;;;;6158012;23;20055;-83
2023/01/26 09:37:43;;;;;;;3.72;1.52;;;1.70;91.80;;;;;;6157177;23;19997;-82
2023/01/26 09:40:18;;;;;;;4.03;1.73;;;1.70;91.80;;;;;;6158039;23;20481;-83
2023/01/26 09:43:08;;;;;;;6.65;2.42;;;1.80;91.80;;;;;;6133742;23;20001;-83
2023/01/26 09:45:53;;;;;;;4.57;2.00;;;1.80;91.80;;;;;;6114900;23;20562;-83
2023/01/26 09:48:36;;;;;;;5.90;2.05;;;1.80;91.80;;;;;;6119339;23;20027;-85
2023/01/26 09:51:12;;;;;;;3.92;1.85;;;1.90;91.80;;;;;;6147148;23;20009;-84
2023/01/26 09:53:46;;;;;;;10.13;3.50;;;1.90;91.80;;;;;;6157417;23;20084;-86
2023/01/26 09:56:17;;;;;;;4.95;2.03;;;1.90;91.70;;;;;;6104008;23;20047;-86
2023/01/26 09:58:48;;;;;;;5.53;2.10;;;1.90;91.70;;;;;;6131304;23;20087;-85
2023/01/26 10:01:45;;;;;;;4.72;1.70;;;2.00;91.70;;;;;;6132563;23;20315;-86
2023/01/26 10:04:35;;;;;;;4.55;1.77;;;2.10;91.70;;;;;;6132619;23;20010;-84
2023/01/26 10:07:16;;;;;;;6.07;2.30;;;2.10;91.70;;;;;;6138640;23;20010;-87
2023/01/26 10:09:47;;;;;;;4.73;2.00;;;2.20;91.70;;;;;;6098501;23;20045;-88
2023/01/26 10:12:32;;;;;;;5.50;1.80;;;2.20;91.70;;;;;;6044548;23;20006;-88
2023/01/26 10:15:05;;;;;;;4.93;2.03;;;2.30;91.70;;;;;;6069548;23;20003;-87
2023/01/26 10:17:43;;;;;;;4.85;1.85;;;2.40;91.70;;;;;;6047889;23;20030;-88
2023/01/26 10:20:32;;;;;;;4.25;1.80;;;2.40;91.60;;;;;;5983182;23;20023;-88
2023/01/26 10:23:03;;;;;;;5.53;1.92;;;2.50;91.60;;;;;;5959999;24;20016;-87
2023/01/26 10:25:38;;;;;;;4.40;1.60;;;2.60;91.60;;;;;;5912336;23;20025;-87
2023/01/26 10:28:15;;;;;;;5.55;1.83;;;2.70;91.60;;;;;;5937069;23;20020;-86
2023/01/26 10:30:42;;;;;;;4.85;1.63;;;2.70;91.60;;;;;;5963041;24;20043;-86
2023/01/26 10:33:31;;;;;;;4.70;1.85;;;2.80;91.50;;;;;;5916957;23;20860;-88
2023/01/26 10:35:57;;;;;;;2.40;1.00;;;2.80;91.50;;;;;;5963004;23;20016;-81
2023/01/26 10:38:42;;;;;;;4.93;1.75;;;2.90;91.50;;;;;;5960832;23;20016;-80
2023/01/26 10:41:23;;;;;;;3.08;1.30;;;3.00;91.50;;;;;;6027691;23;20027;-81
2023/01/26 10:44:01;;;;;;;2.93;1.30;;;3.10;91.50;;;;;;6048671;23;20850;-81
2023/01/26 10:46:32;;;;;;;3.17;1.45;;;3.20;91.50;;;;;;6048005;23;20333;-81
2023/01/26 10:49:14;;;;;;;3.67;1.40;;;3.20;91.50;;;;;;6098625;23;20001;-80
2023/01/26 10:51:44;;;;;;;3.30;1.33;;;3.30;91.50;;;;;;6141355;23;20037;-80
2023/01/26 10:54:26;;;;;;;4.72;1.60;;;3.30;91.40;;;;;;6157864;23;20005;-81
2023/01/26 10:57:13;;;;;;;3.30;1.40;;;3.30;91.50;;;;;;6107149;23;20045;-80
2023/01/26 10:59:57;;;;;;;3.90;1.70;;;3.40;91.50;;;;;;6160624;23;20496;-81
2023/01/26 11:02:26;;;;;;;5.05;1.73;;;3.40;91.40;;;;;;6157068;23;20028;-81
2023/01/26 11:05:14;;;;;;;1.92;1.10;;;3.40;91.70;;;;;;6158180;23;20084;-81
2023/01/26 11:07:42;;;;;;;1.95;1.10;;;3.50;91.60;;;;;;6161446;23;20020;-81
2023/01/26 11:10:22;;;;;;;3.88;1.40;;;3.60;91.50;;;;;;6184489;23;20083;-81
2023/01/26 11:12:49;;;;;;;3.95;1.33;;;3.60;91.50;;;;;;6130924;23;20006;-80
2023/01/26 11:15:18;;;;;;;4.57;1.75;;;3.70;91.50;;;;;;6130285;23;20002;-81
2023/01/26 11:17:59;;;;;;;3.05;1.30;;;3.70;91.50;;;;;;6133523;23;20021;-80
2023/01/26 11:20:36;;;;;;;;;;;3.70;91.50;;;;;;6157535;23;20020;-81
2023/01/26 11:23:28;;;;;;;3.70;1.45;;;3.80;91.50;;;;;;6127682;23;20308;-81
2023/01/26 11:26:29;;;;;;;1.85;1.10;;;3.80;91.50;;;;;;6131472;23;20331;-81
2023/01/26 11:29:28;;;;;;;4.20;1.57;;;3.80;91.50;;;;;;6137440;23;20032;-80
2023/01/26 11:32:14;;;;;;;2.63;0.98;;;3.90;91.50;;;;;;6182409;23;20674;-81
2023/01/26 11:35:19;;;;;;;3.45;1.38;;;3.90;91.50;;;;;;6157434;23;20032;-80
2023/01/26 11:38:12;;;;;;;3.13;1.20;;;4.00;91.50;;;;;;6156794;23;20338;-80
2023/01/26 11:40:57;;;;;;;3.78;1.30;;;4.10;91.50;;;;;;6159856;23;20011;-81
2023/01/26 11:43:49;;;;;;;2.88;1.25;;;4.10;91.50;;;;;;6157513;23;20392;-80
2023/01/26 11:46:49;;;;;;;2.05;1.20;;;4.30;91.50;;;;;;6156491;23;20052;-81
2023/01/26 11:49:51;;;;;;;3.30;1.30;;;4.40;91.50;;;;;;6156351;23;20087;-81
2023/01/26 11:52:50;;;;;;;2.03;0.93;;;4.50;91.40;;;;;;6105849;23;20005;-80
2023/01/26 11:55:43;;;;;;;2.60;1.35;;;4.60;91.40;;;;;;6155609;23;20013;-81
2023/01/26 11:58:26;;;;;;;2.42;0.98;;;4.70;91.30;;;;;;6182014;23;20009;-80
2023/01/26 12:00:56;;;;;;;3.03;0.90;;;4.80;91.30;;;;;;6155377;23;19997;-81
2023/01/26 12:03:35;;;;;;;3.13;1.27;;;4.90;91.30;;;;;;6126097;23;20080;-80
2023/01/26 12:06:13;;;;;;;2.63;0.93;;;5.00;91.30;;;;;;6132278;23;20005;-80
2023/01/26 12:08:43;;;;;;;1.75;0.82;;;5.10;91.20;;;;;;6131718;23;20006;-81
2023/01/26 12:11:24;;;;;;;1.88;0.85;;;5.10;91.20;;;;;;6157890;23;20012;-81
2023/01/26 12:14:01;;;;;;;2.03;1.10;;;5.30;91.20;;;;;;6156826;23;20056;-81
2023/01/26 12:16:41;;;;;;;2.00;0.88;;;5.40;91.20;;;;;;6181611;23;20009;-81
2023/01/26 12:19:18;;;;;;;3.00;1.30;;;5.50;91.20;;;;;;6154547;23;20096;-81
2023/01/26 12:21:45;;;;;;;3.20;1.23;;;5.70;91.10;;;;;;6132898;23;20002;-80
2023/01/26 12:24:20;;;;;;;4.95;1.25;;;5.90;91.10;;;;;;6180577;23;20009;-80
2023/01/26 12:26:51;;;;;;;2.17;1.02;;;6.00;91.00;;;;;;6130823;23;20054;-80
2023/01/26 12:29:27;;;;;;;1.65;0.90;;;6.10;91.00;;;;;;6158486;23;20476;-80
2023/01/26 12:31:58;;;;;;;3.47;1.48;;;6.30;90.90;;;;;;6132903;23;20388;-80
2023/01/26 12:34:28;;;;;;;3.95;1.30;;;6.40;90.80;;;;;;6181190;23;20005;-80
2023/01/26 12:37:17;;;;;;;2.10;1.00;;;6.60;90.70;;;;;;6157399;23;20040;-80
2023/01/26 12:39:47;;;;;;;2.20;0.90;;;6.70;90.70;;;;;;6126408;23;20429;-80
2023/01/26 12:42:45;;;;;;;1.53;0.80;;;6.80;90.60;;;;;;6156219;23;20005;-80
2023/01/26 12:45:19;;;;;;;4.22;1.08;;;6.80;90.60;;;;;;6110590;23;20089;-81
2023/01/26 12:47:51;;;;;;;3.13;1.10;;;6.90;90.60;;;;;;6134018;23;20429;-80
2023/01/26 12:50:31;;;;;;;3.80;0.80;;;7.00;90.60;;;;;;6156149;23;20010;-80
2023/01/26 12:53:04;;;;;;;3.15;0.93;;;7.10;90.60;;;;;;6158997;23;20011;-80
2023/01/26 12:55:38;;;;;;;2.65;0.90;;;7.10;90.60;;;;;;6154340;23;20005;-81
2023/01/26 12:58:13;;;;;;;2.33;0.90;;;7.20;90.60;;;;;;6108229;23;20016;-81
2023/01/26 13:00:39;;;;;;;2.50;0.82;;;7.30;90.60;;;;;;6133307;23;20071;-82
2023/01/26 13:03:17;;;;;;;1.75;0.68;;;7.40;90.50;;;;;;6131885;23;20048;-82
2023/01/26 13:06:16;;;;;;;3.88;0.80;;;7.40;90.60;;;;;;6101987;23;20009;-80
2023/01/26 13:09:18;;;;;;;2.40;0.88;;;7.60;90.60;;;;;;6182075;23;20011;-81
2023/01/26 13:11:53;;;;;;;2.45;0.90;;;7.70;90.50;;;;;;6143084;23;20065;-84
2023/01/26 13:14:58;;;;;;;2.05;0.70;;;7.70;90.40;;;;;;6127446;23;20450;-88
2023/01/26 13:18:01;;;;;;;1.73;0.70;;;7.70;90.40;;;;;;6121176;23;20453;-86
2023/01/26 13:20:44;;;;;;;3.88;0.85;;;7.70;90.40;;;;;;6130042;23;20004;-88
2023/01/26 13:23:40;;;;;;;1.70;0.68;;;7.70;90.60;;;;;;6133213;23;20009;-88
2023/01/26 13:26:40;;;;;;;1.58;0.52;;;7.70;90.60;;;;;;6136414;23;20170;-88
2023/01/26 13:29:30;;;;;;;1.52;0.63;;;7.80;90.60;;;;;;6136317;23;20060;-86
2023/01/26 13:31:59;;;;;;;2.88;0.50;;;7.90;90.50;;;;;;6133397;23;20005;-87
2023/01/26 13:34:31;;;;;;;0.35;0.22;;;7.90;90.50;;;;;;6132809;23;20025;-88
2023/01/26 13:37:09;;;;;;;2.28;0.80;;;8.00;90.40;;;;;;6132684;23;20024;-89
2023/01/26 13:39:38;;;;;;;1.60;0.65;;;8.00;90.40;;;;;;6106470;23;20421;-86
2023/01/26 13:42:19;;;;;;;1.52;0.47;;;8.00;90.50;;;;;;6131532;23;19998;-86
2023/01/26 13:44:55;;;;;;;3.05;0.47;;;7.90;90.50;;;;;;6127285;23;19998;-87
2023/01/26 13:47:27;;;;;;;3.45;0.70;;;8.00;90.60;;;;;;6107821;23;20010;-87
2023/01/26 13:49:53;;;;;;;1.92;0.32;;;8.00;90.60;;;;;;6129235;23;20092;-88
2023/01/26 13:52:22;;;;;;;4.50;0.52;;;8.00;90.60;;;;;;6158409;23;20025;-83
2023/01/26 13:54:51;;;;;;;0.98;0.40;;;8.00;90.70;;;;;;6157260;23;20009;-83
2023/01/26 13:57:22;;;;;;;3.47;0.55;;;7.80;91.00;;;;;;6103186;23;20106;-84
2023/01/26 13:59:51;;;;;;;1.98;0.30;;;7.90;90.80;;;;;;6103315;23;20006;-83
2023/01/26 14:02:37;;;;;;;0.85;0.40;;;7.90;90.70;;;;;;6105551;23;20005;-84